Time;durP1;ratioP1;P1;durP2;ratioP2;P2;SDS_P1;SDS_P2;PMS_P1;PMS_P2;Temp;Humidity;BMP_temperature;BMP_pressure;BME280_temperature;BME280_humidity;BME280_pressure;Samples;Min_cycle;Max_cycle;Signal;HPM_P1;HPM_P2
2022/03/05 00:02:25;;;;;;;26.40;12.60;;;;;;;-0.49;74.04;100428.30;214562;1274;141852;-70
2022/03/05 00:07:28;;;;;;;22.10;13.60;;;;;;;-0.50;74.24;100430.71;214975;1274;140392;-74
2022/03/05 00:12:32;;;;;;;28.40;15.40;;;;;;;-0.55;74.13;100434.18;213620;1274;139771;-68
2022/03/05 00:17:36;;;;;;;29.80;12.70;;;;;;;-0.62;74.18;100434.83;213810;1274;142963;-71
2022/03/05 00:22:41;;;;;;;23.70;12.20;;;;;;;-0.74;74.37;100433.73;213905;1273;140730;-71
2022/03/05 00:27:45;;;;;;;21.40;13.10;;;;;;;-0.89;74.48;100435.48;213766;1274;139900;-69
2022/03/05 00:32:50;;;;;;;24.00;12.10;;;;;;;-0.95;74.56;100440.31;215380;1274;140370;-73
2022/03/05 00:37:54;;;;;;;26.90;13.40;;;;;;;-0.93;74.62;100445.48;214584;1274;141968;-73
2022/03/05 00:42:58;;;;;;;26.90;16.90;;;;;;;-0.88;74.92;100444.64;215175;1274;141562;-73
2022/03/05 00:48:02;;;;;;;32.20;16.80;;;;;;;-0.88;75.15;100443.40;216048;1274;140136;-74
2022/03/05 00:53:10;;;;;;;38.20;17.30;;;;;;;-0.82;75.40;100440.94;215891;1274;141007;-77
2022/03/05 00:58:15;;;;;;;28.20;15.30;;;;;;;-0.74;75.56;100437.02;215949;1274;140783;-76
2022/03/05 01:03:19;;;;;;;24.20;14.20;;;;;;;-0.58;75.86;100438.27;215651;1274;140930;-77
2022/03/05 01:08:24;;;;;;;27.30;14.90;;;;;;;-0.41;76.15;100438.11;215950;1274;140643;-76
2022/03/05 01:13:28;;;;;;;23.20;15.10;;;;;;;-0.34;76.03;100437.58;214296;1274;140271;-71
2022/03/05 01:18:34;;;;;;;26.60;13.70;;;;;;;-0.38;75.81;100434.63;214626;1273;140642;-76
2022/03/05 01:23:38;;;;;;;26.90;15.30;;;;;;;-0.36;76.00;100434.06;215188;1274;141729;-76
2022/03/05 01:28:43;;;;;;;23.80;13.00;;;;;;;-0.25;76.29;100439.46;214521;1274;140863;-76
2022/03/05 01:33:48;;;;;;;23.90;13.60;;;;;;;-0.17;76.22;100437.38;213636;1274;142114;-75
2022/03/05 01:38:51;;;;;;;21.80;12.70;;;;;;;-0.20;76.52;100438.67;214661;1274;140255;-75
2022/03/05 01:43:54;;;;;;;20.70;14.50;;;;;;;-0.24;76.67;100438.23;213713;1275;142218;-75
2022/03/05 01:49:01;;;;;;;26.60;15.00;;;;;;;-0.26;76.65;100442.20;214639;1274;139894;-73
2022/03/05 01:54:08;;;;;;;40.10;17.80;;;;;;;-0.21;76.70;100439.33;213720;1275;142980;-76
2022/03/05 01:59:13;;;;;;;23.00;14.90;;;;;;;-0.18;76.71;100433.02;213305;1274;140214;-74
2022/03/05 02:04:18;;;;;;;25.10;14.30;;;;;;;-0.17;76.73;100429.98;213536;1276;140242;-74
2022/03/05 02:09:23;;;;;;;24.80;12.80;;;;;;;-0.25;76.74;100425.18;214143;1274;233407;-73
2022/03/05 02:14:29;;;;;;;24.00;14.30;;;;;;;-0.34;76.86;100427.80;213829;1274;141934;-70
2022/03/05 02:19:34;;;;;;;26.50;17.10;;;;;;;-0.35;76.84;100437.84;214445;1274;141187;-69
2022/03/05 02:24:40;;;;;;;26.40;14.90;;;;;;;-0.31;77.11;100433.48;214320;1274;140154;-70
2022/03/05 02:29:45;;;;;;;23.20;16.10;;;;;;;-0.35;76.99;100436.29;212991;1274;1427461;-72
2022/03/05 02:34:49;;;;;;;21.20;14.50;;;;;;;-0.37;77.11;100434.21;213549;1273;140560;-74
2022/03/05 02:39:55;;;;;;;31.80;15.00;;;;;;;-0.41;77.21;100441.01;214402;1274;140824;-72
2022/03/05 02:44:59;;;;;;;25.30;15.50;;;;;;;-0.39;77.15;100445.71;214315;1274;141318;-69
2022/03/05 02:50:04;;;;;;;25.30;14.90;;;;;;;-0.32;77.31;100447.01;215284;1274;142009;-77
2022/03/05 02:55:07;;;;;;;29.40;14.60;;;;;;;-0.34;77.37;100444.00;216008;1274;140925;-75
2022/03/05 03:00:12;;;;;;;21.40;15.10;;;;;;;-0.36;77.31;100440.41;216083;1274;139996;-77
2022/03/05 03:05:17;;;;;;;22.40;14.20;;;;;;;-0.36;77.47;100433.02;215792;1275;140323;-77
2022/03/05 03:10:21;;;;;;;22.20;13.30;;;;;;;-0.29;77.10;100436.95;215898;1274;142706;-73
2022/03/05 03:15:26;;;;;;;23.40;14.80;;;;;;;-0.31;77.09;100437.54;215986;1273;139987;-73
2022/03/05 03:20:29;;;;;;;26.70;14.30;;;;;;;-0.26;77.47;100431.77;214991;1274;140007;-73
2022/03/05 03:25:38;;;;;;;20.70;12.20;;;;;;;-0.21;77.17;100430.59;214611;1276;141958;-71
2022/03/05 03:30:42;;;;;;;17.10;10.70;;;;;;;-0.21;76.82;100435.41;214726;1275;141171;-70
2022/03/05 03:35:46;;;;;;;19.40;10.60;;;;;;;-0.30;76.61;100437.71;214633;1275;141580;-72
2022/03/05 03:40:50;;;;;;;14.40;6.50;;;;;;;-0.36;76.74;100441.56;214605;1276;140530;-74
2022/03/05 03:45:55;;;;;;;13.30;8.60;;;;;;;-0.39;76.30;100442.98;214243;1277;140137;-70
2022/03/05 03:51:00;;;;;;;16.60;8.70;;;;;;;-0.36;76.26;100446.67;213572;1276;141427;-71
2022/03/05 03:56:04;;;;;;;13.70;8.90;;;;;;;-0.37;75.85;100439.95;213302;1277;139902;-73
2022/03/05 04:01:08;;;;;;;8.20;5.40;;;;;;;-0.43;75.87;100442.48;213976;1275;139778;-73
2022/03/05 04:06:13;;;;;;;9.80;6.70;;;;;;;-0.51;75.52;100441.80;214165;1277;141107;-73
2022/03/05 04:11:19;;;;;;;7.70;5.50;;;;;;;-0.54;75.38;100448.40;213497;1277;142712;-72
2022/03/05 04:16:25;;;;;;;13.40;7.30;;;;;;;-0.59;75.06;100448.35;213824;1276;141983;-74
2022/03/05 04:21:30;;;;;;;11.50;5.90;;;;;;;-0.63;75.18;100448.80;213845;1276;140742;-70
2022/03/05 04:26:34;;;;;;;12.00;6.40;;;;;;;-0.67;74.91;100451.73;214598;1274;141706;-76
2022/03/05 04:31:39;;;;;;;8.50;4.20;;;;;;;-0.65;74.58;100454.23;214886;1274;140726;-74
2022/03/05 04:36:44;;;;;;;6.50;4.30;;;;;;;-0.69;74.36;100455.14;213974;1275;141811;-72
2022/03/05 04:41:48;;;;;;;11.40;5.30;;;;;;;-0.75;74.27;100457.36;214617;1276;140533;-74
2022/03/05 04:46:52;;;;;;;9.30;5.80;;;;;;;-0.71;74.19;100463.80;215529;1275;140471;-76
2022/03/05 04:51:58;;;;;;;8.50;4.90;;;;;;;-0.65;74.02;100463.09;215946;1274;141669;-74
2022/03/05 04:57:03;;;;;;;8.30;4.60;;;;;;;-0.62;73.96;100467.89;215851;1275;140653;-74
2022/03/05 05:02:07;;;;;;;6.40;4.40;;;;;;;-0.62;73.72;100466.82;215850;1274;139982;-72
2022/03/05 05:07:12;;;;;;;6.50;4.60;;;;;;;-0.61;73.34;100467.02;216035;1274;140265;-72
2022/03/05 05:12:17;;;;;;;8.40;4.20;;;;;;;-0.59;73.28;100473.17;215791;1274;140593;-73
2022/03/05 05:17:21;;;;;;;7.40;5.40;;;;;;;-0.52;73.37;100471.90;215689;1274;140845;-74
2022/03/05 05:22:26;;;;;;;5.90;3.60;;;;;;;-0.47;73.04;100472.73;215079;1274;139462;-76
2022/03/05 05:27:35;;;;;;;6.40;4.50;;;;;;;-0.46;72.93;100476.92;215985;1274;142528;-72
2022/03/05 05:32:40;;;;;;;12.30;5.20;;;;;;;-0.45;73.01;100476.70;214209;1274;140246;-73
2022/03/05 05:37:44;;;;;;;8.90;5.50;;;;;;;-0.48;72.62;100485.51;214493;1274;142873;-72
2022/03/05 05:42:48;;;;;;;7.80;4.30;;;;;;;-0.51;72.37;100487.09;214059;1274;141223;-75
2022/03/05 05:47:52;;;;;;;8.50;5.00;;;;;;;-0.52;72.45;100491.17;213470;1274;142023;-74
2022/03/05 05:52:57;;;;;;;6.70;4.70;;;;;;;-0.52;72.52;100494.67;215261;1274;139387;-73
2022/03/05 05:58:00;;;;;;;7.30;4.20;;;;;;;-0.54;72.59;100498.52;214664;1274;140368;-73
2022/03/05 06:03:03;;;;;;;6.10;4.20;;;;;;;-0.58;72.33;100502.04;214598;1275;140666;-72
2022/03/05 06:08:07;;;;;;;6.90;5.20;;;;;;;-0.58;72.43;100506.61;214043;1274;140431;-74
2022/03/05 06:13:10;;;;;;;10.60;5.70;;;;;;;-0.52;72.22;100505.48;214503;1274;140557;-68
2022/03/05 06:18:14;;;;;;;7.10;5.60;;;;;;;-0.47;72.38;100506.92;214401;1274;141796;-74
2022/03/05 06:23:20;;;;;;;8.00;4.90;;;;;;;-0.40;72.53;100507.84;213298;1274;154036;-71
2022/03/05 06:28:23;;;;;;;10.00;4.80;;;;;;;-0.35;72.39;100511.91;213338;1274;142609;-74
2022/03/05 06:33:27;;;;;;;6.50;4.00;;;;;;;-0.35;72.07;100514.66;213580;1274;142513;-75
2022/03/05 06:38:31;;;;;;;10.40;5.00;;;;;;;-0.34;71.88;100517.91;213358;1274;140358;-71
2022/03/05 06:43:34;;;;;;;7.20;4.60;;;;;;;-0.24;71.97;100523.25;214508;1274;141956;-70
2022/03/05 06:48:38;;;;;;;4.50;3.90;;;;;;;-0.19;71.59;100529.90;214216;1274;140521;-72
2022/03/05 06:53:43;;;;;;;7.50;5.60;;;;;;;-0.15;71.52;100534.81;214388;1274;140695;-71
2022/03/05 06:58:46;;;;;;;8.90;6.20;;;;;;;-0.09;71.56;100539.42;214802;1274;140851;-77
2022/03/05 07:03:50;;;;;;;5.50;3.50;;;;;;;-0.03;71.62;100543.95;215620;1274;139581;-71
2022/03/05 07:08:54;;;;;;;6.60;4.90;;;;;;;-0.01;71.06;100541.80;214445;1274;140818;-72
2022/03/05 07:14:02;;;;;;;5.60;4.50;;;;;;;0.08;70.85;100541.66;215628;1274;141089;-78
2022/03/05 07:19:07;;;;;;;;;;;;;;;0.14;70.60;100545.95;216097;1274;140341;-78
2022/03/05 07:24:17;;;;;;;5.60;4.00;;;;;;;0.18;70.51;100547.48;216512;1274;126348;-78
2022/03/05 07:29:21;;;;;;;12.20;4.60;;;;;;;0.24;70.08;100544.50;215831;1274;142787;-75
2022/03/05 07:34:26;;;;;;;6.70;4.40;;;;;;;0.27;69.93;100547.85;215767;1274;141464;-76
2022/03/05 07:39:30;;;;;;;6.30;3.70;;;;;;;0.36;69.87;100551.16;215147;1274;139687;-72
2022/03/05 07:44:35;;;;;;;4.20;2.70;;;;;;;0.44;69.42;100558.81;214584;1274;139448;-74
2022/03/05 07:49:39;;;;;;;4.70;4.20;;;;;;;0.49;69.24;100560.94;214684;1274;141379;-73
2022/03/05 07:54:45;;;;;;;6.30;4.10;;;;;;;0.55;69.33;100562.61;214745;1274;162511;-70
2022/03/05 07:59:49;;;;;;;6.70;3.40;;;;;;;0.63;68.80;100570.38;213861;1274;140850;-74
2022/03/05 08:05:16;;;;;;;11.60;5.10;;;;;;;0.71;68.70;100569.39;214531;1274;139671;-73
2022/03/05 08:10:21;;;;;;;9.10;5.20;;;;;;;0.85;68.79;100572.61;214385;1274;141936;-73
2022/03/05 08:15:25;;;;;;;8.10;5.10;;;;;;;0.96;68.23;100573.92;215053;1274;139794;-73
2022/03/05 08:20:31;;;;;;;5.30;4.50;;;;;;;1.04;68.00;100578.16;214039;1274;141453;-67
2022/03/05 08:25:35;;;;;;;8.60;6.30;;;;;;;1.17;68.04;100584.31;213062;1274;140129;-73
2022/03/05 08:30:40;;;;;;;4.80;3.60;;;;;;;1.26;67.43;100586.13;213987;1274;140148;-71
2022/03/05 08:35:44;;;;;;;9.70;4.50;;;;;;;1.30;67.56;100579.98;213215;1273;140502;-68
2022/03/05 08:40:48;;;;;;;7.10;4.30;;;;;;;1.39;66.99;100586.09;214462;1277;140029;-69
2022/03/05 08:45:52;;;;;;;9.40;5.60;;;;;;;1.45;66.33;100588.59;214619;1274;140478;-69
2022/03/05 08:50:56;;;;;;;7.90;3.60;;;;;;;1.57;66.66;100587.17;214240;1274;140787;-71
2022/03/05 08:56:01;;;;;;;6.80;5.00;;;;;;;1.67;66.47;100594.80;214589;1274;140116;-72
2022/03/05 09:01:06;;;;;;;6.80;4.60;;;;;;;1.87;66.04;100598.53;213475;1274;140312;-73
2022/03/05 09:06:12;;;;;;;6.80;4.20;;;;;;;2.03;65.86;100594.14;214571;1274;140652;-71
2022/03/05 09:11:17;;;;;;;3.50;2.50;;;;;;;2.25;65.02;100591.32;214045;1274;140509;-72
2022/03/05 09:16:21;;;;;;;5.50;3.50;;;;;;;2.39;64.55;100595.31;214828;1274;139671;-73
2022/03/05 09:21:27;;;;;;;6.40;4.20;;;;;;;2.47;64.06;100598.04;215828;1274;140652;-72
2022/03/05 09:26:32;;;;;;;3.10;2.40;;;;;;;2.51;63.60;100599.50;215791;1274;139759;-72
2022/03/05 09:31:36;;;;;;;4.20;3.20;;;;;;;2.59;63.14;100603.73;215915;1274;140999;-73
2022/03/05 09:36:46;;;;;;;6.40;3.90;;;;;;;2.73;63.23;100601.92;215851;1274;140046;-75
2022/03/05 09:41:50;;;;;;;6.10;3.60;;;;;;;2.87;62.74;100599.05;215229;1274;139563;-71
2022/03/05 09:46:54;;;;;;;5.40;3.20;;;;;;;2.93;62.01;100604.96;215999;1274;139761;-77
2022/03/05 09:51:59;;;;;;;4.50;4.10;;;;;;;3.06;62.13;100606.77;214194;1274;139960;-71
2022/03/05 09:57:10;;;;;;;5.10;4.40;;;;;;;3.11;61.50;100605.77;215156;1274;140168;-74
2022/03/05 10:02:15;;;;;;;4.20;3.80;;;;;;;3.13;61.05;100610.65;214493;1274;139338;-71
2022/03/05 10:07:22;;;;;;;19.70;10.30;;;;;;;3.26;61.13;100606.17;214537;1274;140646;-72
2022/03/05 10:12:33;;;;;;;15.80;8.50;;;;;;;3.19;61.08;100611.90;214749;1274;150795;-76
2022/03/05 10:17:55;;;;;;;9.80;7.80;;;;;;;3.04;60.93;100609.24;214487;1274;140129;-69
2022/03/05 10:23:14;;;;;;;13.60;5.10;;;;;;;2.93;61.29;100615.20;214107;1274;140153;-67
2022/03/05 10:28:29;;;;;;;8.00;5.30;;;;;;;2.81;61.22;100615.64;214307;1274;140134;-72
2022/03/05 10:33:42;;;;;;;6.00;4.50;;;;;;;2.64;60.51;100611.93;214282;1274;140245;-70
2022/03/05 10:39:02;;;;;;;5.70;3.40;;;;;;;2.53;60.68;100611.94;214693;1274;140523;-74
2022/03/05 10:44:13;;;;;;;4.40;4.00;;;;;;;2.47;60.71;100614.69;213310;1274;141794;-68
2022/03/05 10:49:26;;;;;;;4.10;3.00;;;;;;;2.42;60.59;100614.00;213863;1274;139478;-75
2022/03/05 10:54:42;;;;;;;7.90;3.30;;;;;;;2.38;60.22;100613.30;215125;1274;141394;-75
2022/03/05 10:59:53;;;;;;;4.90;3.50;;;;;;;2.37;60.49;100618.70;213875;1274;141662;-75
2022/03/05 11:04:59;;;;;;;3.90;3.60;;;;;;;2.38;60.60;100620.41;215231;1274;139482;-71
2022/03/05 11:10:04;;;;;;;4.60;4.00;;;;;;;2.43;60.33;100623.55;214920;1274;140245;-75
2022/03/05 11:15:09;;;;;;;5.30;3.70;;;;;;;2.42;59.88;100625.71;214681;1274;140206;-72
2022/03/05 11:20:14;;;;;;;4.60;3.50;;;;;;;2.36;59.94;100619.31;215478;1274;140187;-73
2022/03/05 11:25:24;;;;;;;6.90;5.20;;;;;;;2.27;60.38;100622.54;215562;1274;140442;-73
2022/03/05 11:30:40;;;;;;;6.10;4.10;;;;;;;2.15;60.41;100625.70;215392;1274;140124;-73
2022/03/05 11:35:48;;;;;;;7.20;4.70;;;;;;;2.06;60.50;100622.30;215979;1274;140011;-74
2022/03/05 11:40:52;;;;;;;;;;;;;;;2.03;60.70;100620.15;215378;1274;140341;-73
2022/03/05 11:45:59;;;;;;;6.80;4.30;;;;;;;2.04;60.76;100618.98;215856;1274;126500;-73
2022/03/05 11:51:16;;;;;;;7.30;4.90;;;;;;;2.08;60.75;100606.53;214690;1274;139816;-73
2022/03/05 11:56:26;;;;;;;6.30;4.40;;;;;;;2.17;60.48;100600.02;214205;1274;140059;-73
2022/03/05 12:01:41;;;;;;;6.50;5.40;;;;;;;2.27;60.36;100593.36;213790;1274;140097;-74
2022/03/05 12:06:47;;;;;;;6.90;3.90;;;;;;;2.36;60.12;100589.98;214518;1274;140198;-71
2022/03/05 12:11:55;;;;;;;3.70;3.00;;;;;;;2.46;59.63;100584.42;214627;1274;140334;-73
2022/03/05 12:17:09;;;;;;;7.10;4.20;;;;;;;2.58;59.36;100582.11;214088;1276;139682;-73
2022/03/05 12:22:14;;;;;;;11.30;6.50;;;;;;;2.65;59.06;100577.10;213788;1274;139779;-74
2022/03/05 12:27:19;;;;;;;5.20;3.50;;;;;;;2.68;58.99;100574.34;214429;1276;139604;-72
2022/03/05 12:32:34;;;;;;;6.30;5.20;;;;;;;2.76;58.60;100570.85;212862;1274;140123;-73
2022/03/05 12:37:39;;;;;;;3.90;3.20;;;;;;;2.90;58.01;100569.73;213666;1274;139840;-72
2022/03/05 12:42:49;;;;;;;6.30;3.60;;;;;;;2.89;57.93;100564.37;213578;1276;140402;-75
2022/03/05 12:47:56;;;;;;;4.80;3.50;;;;;;;2.93;57.51;100563.78;213910;1274;139607;-73
2022/03/05 12:53:09;;;;;;;5.20;3.40;;;;;;;2.98;57.25;100566.41;214498;1274;140200;-73
2022/03/05 12:58:24;;;;;;;3.20;2.90;;;;;;;2.98;56.69;100565.50;214506;1275;139503;-74
2022/03/05 13:03:31;;;;;;;6.00;3.90;;;;;;;3.01;56.55;100569.88;213941;1276;139964;-75
2022/03/05 13:08:38;;;;;;;4.00;2.60;;;;;;;3.00;56.04;100570.90;214145;1274;141072;-75
2022/03/05 13:13:44;;;;;;;3.90;3.00;;;;;;;2.95;55.76;100568.95;213869;1276;139637;-76
2022/03/05 13:19:04;;;;;;;3.70;3.40;;;;;;;2.85;54.76;100571.34;214781;1274;141050;-77
2022/03/05 13:24:10;;;;;;;3.30;2.90;;;;;;;2.79;54.93;100575.79;214993;1274;140155;-76
2022/03/05 13:29:15;;;;;;;6.40;4.10;;;;;;;2.68;54.82;100572.76;215866;1274;140578;-77
2022/03/05 13:34:26;;;;;;;9.60;4.20;;;;;;;2.55;55.18;100580.63;214341;1274;141690;-75
2022/03/05 13:39:34;;;;;;;8.00;3.70;;;;;;;2.44;55.21;100584.42;215675;1274;140353;-77
2022/03/05 13:44:39;;;;;;;6.50;3.40;;;;;;;2.39;55.57;100578.50;215810;1274;141535;-76
2022/03/05 13:49:46;;;;;;;12.30;5.70;;;;;;;2.31;55.66;100571.38;215655;1274;139866;-75
2022/03/05 13:54:50;;;;;;;3.80;3.30;;;;;;;2.25;55.42;100563.95;215817;1274;140885;-75
2022/03/05 14:00:04;;;;;;;4.80;2.90;;;;;;;2.24;55.63;100559.88;214267;1274;141341;-74
2022/03/05 14:05:11;;;;;;;7.30;4.90;;;;;;;2.31;55.81;100553.16;214514;1274;140961;-74
2022/03/05 14:10:21;;;;;;;6.20;3.70;;;;;;;2.32;55.98;100548.16;214477;1274;140174;-74
2022/03/05 14:15:27;;;;;;;5.00;4.20;;;;;;;2.28;55.64;100547.89;213499;1274;140864;-73
2022/03/05 14:20:45;;;;;;;5.80;4.40;;;;;;;2.28;55.99;100550.75;214529;1274;140302;-74
2022/03/05 14:25:52;;;;;;;7.30;5.80;;;;;;;2.21;56.07;100563.05;214051;1276;140415;-73
2022/03/05 14:30:56;;;;;;;9.60;5.70;;;;;;;2.12;56.22;100572.57;214028;1275;672364;-76
2022/03/05 14:36:02;;;;;;;6.90;4.50;;;;;;;2.06;56.59;100570.69;213107;1276;139969;-72
2022/03/05 14:41:07;;;;;;;7.30;5.20;;;;;;;1.97;56.65;100576.92;213673;1275;139917;-71
2022/03/05 14:46:14;;;;;;;9.40;4.90;;;;;;;1.91;56.67;100578.83;214396;1276;140918;-75
2022/03/05 14:51:18;;;;;;;7.30;4.60;;;;;;;1.85;56.69;100582.79;214207;1276;140578;-72
2022/03/05 14:56:22;;;;;;;12.00;6.50;;;;;;;1.78;56.72;100586.52;213719;1276;140065;-71
2022/03/05 15:01:26;;;;;;;15.20;11.40;;;;;;;1.72;56.40;100587.07;213100;1276;140349;-71
2022/03/05 15:06:30;;;;;;;18.90;10.40;;;;;;;1.66;56.63;100591.50;213097;1276;139649;-67
2022/03/05 15:11:34;;;;;;;9.70;7.00;;;;;;;1.62;56.64;100594.92;213201;1276;140838;-70
2022/03/05 15:16:37;;;;;;;13.90;8.00;;;;;;;1.60;56.92;100597.41;214834;1276;139826;-77
2022/03/05 15:21:42;;;;;;;10.80;5.00;;;;;;;1.58;57.03;100597.06;214010;1275;141362;-71
2022/03/05 15:26:46;;;;;;;16.00;6.80;;;;;;;1.55;57.19;100601.77;214390;1274;140395;-68
2022/03/05 15:31:49;;;;;;;12.40;6.10;;;;;;;1.50;57.53;100599.83;213493;1274;139928;-67
2022/03/05 15:36:54;;;;;;;9.40;5.70;;;;;;;1.43;57.38;100598.63;214526;1274;141994;-74
2022/03/05 15:41:57;;;;;;;9.60;6.50;;;;;;;1.38;57.64;100596.98;215032;1274;141189;-70
2022/03/05 15:47:01;;;;;;;6.50;5.70;;;;;;;1.33;57.38;100600.66;214530;1274;140146;-67
2022/03/05 15:52:05;;;;;;;8.30;4.80;;;;;;;1.27;57.76;100606.20;216025;1274;140247;-72
2022/03/05 15:57:09;;;;;;;9.50;5.80;;;;;;;1.24;58.18;100606.95;215887;1274;142022;-71
2022/03/05 16:02:12;;;;;;;10.10;6.10;;;;;;;1.21;57.88;100609.09;215803;1274;140187;-73
2022/03/05 16:07:16;;;;;;;10.10;5.70;;;;;;;1.18;58.45;100608.67;215829;1274;142619;-72
2022/03/05 16:12:22;;;;;;;6.00;3.80;;;;;;;1.13;58.31;100601.31;215710;1274;140170;-72
2022/03/05 16:17:29;;;;;;;9.20;5.40;;;;;;;1.03;58.23;100597.69;214441;1274;141311;-70
2022/03/05 16:22:33;;;;;;;8.90;6.00;;;;;;;0.99;58.41;100603.72;214659;1274;142813;-70
2022/03/05 16:27:38;;;;;;;16.10;7.20;;;;;;;0.96;58.45;100604.05;213648;1274;140887;-66
2022/03/05 16:32:42;;;;;;;10.60;5.90;;;;;;;0.96;58.85;100601.78;214195;1274;139781;-69
2022/03/05 16:37:47;;;;;;;9.20;5.60;;;;;;;0.92;58.98;100603.23;214342;1274;140079;-69
2022/03/05 16:42:56;;;;;;;10.70;4.80;;;;;;;0.88;59.13;100602.02;214319;1274;140657;-68
2022/03/05 16:48:01;;;;;;;13.90;8.20;;;;;;;0.84;59.19;100605.77;213848;1274;140070;-70
2022/03/05 16:53:05;;;;;;;13.00;5.50;;;;;;;0.80;58.90;100604.69;213966;1274;142001;-72
2022/03/05 16:58:10;;;;;;;7.50;5.50;;;;;;;0.76;58.83;100604.30;213847;1274;141124;-72
2022/03/05 17:03:16;;;;;;;6.80;5.20;;;;;;;0.70;58.99;100610.42;213674;1274;140271;-69
2022/03/05 17:08:20;;;;;;;10.10;5.50;;;;;;;0.64;58.82;100607.86;214149;1274;139550;-69
2022/03/05 17:13:25;;;;;;;9.30;6.90;;;;;;;0.58;59.14;100613.37;214193;1274;204507;-73
2022/03/05 17:18:29;;;;;;;6.30;5.00;;;;;;;0.51;59.32;100612.66;213922;1274;140732;-72
2022/03/05 17:23:34;;;;;;;7.60;4.80;;;;;;;0.47;59.06;100608.71;214022;1274;141989;-69
2022/03/05 17:28:38;;;;;;;13.00;6.50;;;;;;;0.40;59.00;100611.33;215290;1274;141432;-74
2022/03/05 17:33:43;;;;;;;12.50;6.00;;;;;;;0.34;59.18;100611.98;214838;1274;142055;-73
2022/03/05 17:38:50;;;;;;;9.60;6.30;;;;;;;0.33;59.47;100612.10;215045;1274;141516;-74
2022/03/05 17:43:54;;;;;;;17.50;9.70;;;;;;;0.31;59.43;100614.61;214479;1274;143304;-72
2022/03/05 17:48:59;;;;;;;18.00;9.70;;;;;;;0.29;59.40;100617.91;215839;1274;140738;-75
2022/03/05 17:54:04;;;;;;;10.80;7.60;;;;;;;0.30;59.88;100617.49;215874;1274;142534;-71
2022/03/05 17:59:08;;;;;;;13.80;7.50;;;;;;;0.32;59.84;100617.82;215236;1274;140264;-74
2022/03/05 18:04:14;;;;;;;24.40;9.20;;;;;;;0.31;59.73;100619.42;216165;1274;140557;-76
2022/03/05 18:09:20;;;;;;;14.90;8.80;;;;;;;0.31;59.85;100625.05;214682;1274;139825;-74
2022/03/05 18:14:29;;;;;;;22.20;12.60;;;;;;;0.28;59.84;100627.58;215539;1274;140217;-72
2022/03/05 18:19:33;;;;;;;27.50;13.70;;;;;;;0.26;59.89;100632.67;215185;1274;140476;-69
2022/03/05 18:24:38;;;;;;;23.40;11.40;;;;;;;0.26;60.30;100631.66;215006;1274;140248;-71
2022/03/05 18:29:44;;;;;;;32.20;13.00;;;;;;;0.24;60.86;100625.73;214724;1274;140262;-69
2022/03/05 18:34:52;;;;;;;40.40;15.60;;;;;;;0.24;60.79;100631.16;213760;1274;141072;-72
2022/03/05 18:39:56;;;;;;;35.80;14.50;;;;;;;0.22;61.16;100631.84;214256;1275;141664;-72
2022/03/05 18:45:00;;;;;;;37.00;15.90;;;;;;;0.16;61.66;100637.48;213396;1276;142037;-71
2022/03/05 18:50:08;;;;;;;44.40;15.30;;;;;;;0.09;61.90;100634.15;213205;1274;145311;-69
2022/03/05 18:55:12;;;;;;;34.30;15.30;;;;;;;0.05;61.51;100634.97;214395;1274;141227;-73
2022/03/05 19:00:17;;;;;;;74.20;28.20;;;;;;;0.04;61.54;100639.20;214201;1276;141394;-74
2022/03/05 19:05:20;;;;;;;51.50;19.60;;;;;;;0.05;61.50;100640.54;214221;1274;140923;-70
2022/03/05 19:10:24;;;;;;;33.00;16.60;;;;;;;0.05;61.56;100642.45;213135;1274;143414;-71
2022/03/05 19:15:28;;;;;;;30.60;15.10;;;;;;;0.02;61.76;100644.14;213395;1274;139982;-72
2022/03/05 19:20:32;;;;;;;31.10;15.00;;;;;;;-0.03;62.00;100647.24;214025;1274;140364;-72
2022/03/05 19:25:36;;;;;;;26.50;12.60;;;;;;;-0.08;61.81;100651.38;215013;1274;142036;-66
2022/03/05 19:30:43;;;;;;;21.50;10.40;;;;;;;-0.08;61.75;100655.23;214644;1274;141774;-69
2022/03/05 19:35:47;;;;;;;22.80;10.60;;;;;;;-0.06;61.38;100652.05;214867;1274;141164;-71
2022/03/05 19:40:51;;;;;;;24.90;10.90;;;;;;;-0.05;61.29;100650.01;214809;1276;142121;-71
2022/03/05 19:45:55;;;;;;;32.50;13.90;;;;;;;-0.05;61.49;100652.44;214366;1274;143201;-74
2022/03/05 19:51:00;;;;;;;21.70;11.80;;;;;;;-0.06;61.18;100658.67;214583;1274;141481;-70
2022/03/05 19:56:04;;;;;;;18.00;11.90;;;;;;;-0.08;61.02;100659.56;215845;1274;144019;-70
2022/03/05 20:01:09;;;;;;;33.80;13.60;;;;;;;-0.09;61.23;100659.81;216193;1274;141584;-72
2022/03/05 20:06:16;;;;;;;29.50;15.00;;;;;;;-0.13;60.85;100657.39;216032;1274;142413;-71
2022/03/05 20:11:22;;;;;;;47.80;18.60;;;;;;;-0.16;61.10;100655.58;216009;1274;141373;-72
2022/03/05 20:16:26;;;;;;;47.90;19.30;;;;;;;-0.17;60.92;100656.90;215865;1274;142824;-74
2022/03/05 20:21:30;;;;;;;18.80;11.30;;;;;;;-0.14;61.12;100655.80;216105;1274;141360;-78
2022/03/05 20:26:37;;;;;;;20.30;11.00;;;;;;;-0.14;60.77;100655.11;214536;1274;140967;-73
2022/03/05 20:31:44;;;;;;;21.70;10.00;;;;;;;-0.14;60.83;100655.77;214401;1274;140684;-70
2022/03/05 20:36:49;;;;;;;20.30;11.90;;;;;;;-0.18;60.49;100653.82;214786;1274;140840;-71
2022/03/05 20:41:53;;;;;;;28.80;12.00;;;;;;;-0.21;61.09;100651.17;215122;1274;140934;-73
2022/03/05 20:46:59;;;;;;;30.80;12.80;;;;;;;-0.23;60.96;100657.83;214813;1274;140101;-73
2022/03/05 20:52:03;;;;;;;30.30;11.70;;;;;;;-0.24;61.34;100653.42;213540;1274;140957;-66
2022/03/05 20:57:07;;;;;;;21.00;11.40;;;;;;;-0.29;61.72;100653.70;213639;1274;139859;-69
2022/03/05 21:02:11;;;;;;;33.10;14.90;;;;;;;-0.36;61.97;100659.70;213071;1274;139786;-68
2022/03/05 21:07:16;;;;;;;29.40;18.60;;;;;;;-0.37;62.13;100661.77;214827;1274;140718;-70
2022/03/05 21:12:20;;;;;;;35.30;14.00;;;;;;;-0.39;62.03;100666.49;213948;1274;140689;-70
2022/03/05 21:17:24;;;;;;;32.40;13.70;;;;;;;-0.41;61.66;100664.23;215053;1274;142844;-70
2022/03/05 21:22:29;;;;;;;21.00;12.20;;;;;;;-0.42;61.38;100662.36;214223;1274;140193;-69
2022/03/05 21:27:35;;;;;;;25.50;13.20;;;;;;;-0.48;61.22;100666.03;212868;1275;139967;-71
2022/03/05 21:32:40;;;;;;;21.30;11.50;;;;;;;-0.52;61.12;100666.61;214337;1274;140516;-71
2022/03/05 21:37:45;;;;;;;20.60;11.90;;;;;;;-0.52;61.40;100661.95;214143;1274;139938;-72
2022/03/05 21:42:49;;;;;;;22.30;10.90;;;;;;;-0.55;61.71;100662.67;214224;1274;141225;-70
2022/03/05 21:47:54;;;;;;;22.80;11.80;;;;;;;-0.59;61.54;100664.27;214902;1274;143466;-72
2022/03/05 21:52:58;;;;;;;24.80;12.70;;;;;;;-0.59;61.81;100666.21;214484;1274;140069;-68
2022/03/05 21:58:03;;;;;;;21.80;11.60;;;;;;;-0.59;61.81;100668.66;214877;1274;139900;-71
2022/03/05 22:03:09;;;;;;;18.60;10.30;;;;;;;-0.59;61.95;100669.22;215848;1274;141131;-71
2022/03/05 22:08:14;;;;;;;23.60;10.40;;;;;;;-0.62;62.20;100666.55;214537;1274;142209;-68
2022/03/05 22:13:19;;;;;;;19.90;12.10;;;;;;;-0.60;62.28;100662.71;215992;1274;142520;-69
2022/03/05 22:18:24;;;;;;;20.40;10.70;;;;;;;-0.58;62.53;100660.89;215766;1274;140804;-71
2022/03/05 22:23:28;;;;;;;28.50;12.50;;;;;;;-0.57;62.78;100655.54;213970;1274;140377;-71
2022/03/05 22:28:31;;;;;;;30.40;15.30;;;;;;;-0.52;62.94;100652.98;215993;1274;141133;-71
2022/03/05 22:33:35;;;;;;;24.80;14.00;;;;;;;-0.46;63.06;100655.72;215428;1274;140610;-72
2022/03/05 22:38:40;;;;;;;27.00;13.50;;;;;;;-0.49;63.17;100653.93;213687;1274;140537;-70
2022/03/05 22:43:44;;;;;;;21.80;12.90;;;;;;;-0.50;63.42;100651.63;214762;1274;162960;-73
2022/03/05 22:48:48;;;;;;;29.00;12.30;;;;;;;-0.51;63.37;100656.61;213732;1274;141498;-69
2022/03/05 22:53:52;;;;;;;23.00;11.70;;;;;;;-0.52;63.75;100654.21;214007;1274;141855;-70
2022/03/05 22:58:57;;;;;;;25.10;13.60;;;;;;;-0.55;63.98;100654.48;214560;1274;141620;-71
2022/03/05 23:04:19;;;;;;;18.90;12.00;;;;;;;-0.55;64.33;100652.92;213854;1274;142357;-71